Time;durP1;ratioP1;P1;durP2;ratioP2;P2;SDS_P1;SDS_P2;PMS_P1;PMS_P2;Temp;Humidity;BMP_temperature;BMP_pressure;BME280_temperature;BME280_humidity;BME280_pressure;Samples;Min_cycle;Max_cycle;Signal;HPM_P1;HPM_P2
2021/11/17 02:26:23;;;;;;;19.57;9.63;;;6.20;99.90;;;;;;1925877;73;21642;-76
2021/11/17 02:28:51;;;;;;;11.57;8.50;;;6.20;99.90;;;;;;1939224;72;21136;-75
2021/11/17 02:31:18;;;;;;;10.90;7.70;;;6.10;99.90;;;;;;1951296;73;21194;-75
2021/11/17 02:33:44;;;;;;;12.90;8.15;;;6.30;99.90;;;;;;1942359;71;21136;-75
2021/11/17 02:36:10;;;;;;;14.60;8.08;;;6.20;99.90;;;;;;1931596;73;21115;-76
2021/11/17 02:38:36;;;;;;;15.30;9.30;;;6.30;99.90;;;;;;1939674;72;21054;-76
2021/11/17 02:41:03;;;;;;;13.98;8.93;;;6.20;99.90;;;;;;1946307;73;21083;-75
2021/11/17 02:43:29;;;;;;;14.40;9.10;;;6.20;99.90;;;;;;1932770;71;21163;-76
2021/11/17 02:45:55;;;;;;;14.28;9.10;;;6.20;99.90;;;;;;1943253;73;21146;-76
2021/11/17 02:48:21;;;;;;;10.88;8.58;;;6.20;99.90;;;;;;1951526;72;21111;-76
2021/11/17 02:50:47;;;;;;;11.00;7.72;;;6.20;99.90;;;;;;1938637;73;21496;-76
2021/11/17 02:53:13;;;;;;;14.25;8.20;;;6.20;99.90;;;;;;1936988;73;21510;-76
2021/11/17 02:55:40;;;;;;;9.50;7.45;;;6.20;99.90;;;;;;1935646;73;21505;-76
2021/11/17 02:58:06;;;;;;;11.53;7.90;;;6.20;99.90;;;;;;1932640;73;21504;-76
2021/11/17 03:00:32;;;;;;;9.60;7.08;;;6.20;99.90;;;;;;1922472;73;21150;-75
2021/11/17 03:02:58;;;;;;;11.90;7.15;;;6.30;99.90;;;;;;1924257;73;21080;-76
2021/11/17 03:05:24;;;;;;;10.75;7.33;;;6.40;99.90;;;;;;1945762;72;21059;-76
2021/11/17 03:07:50;;;;;;;21.05;7.70;;;6.30;99.90;;;;;;1939911;72;21288;-75
2021/11/17 03:10:17;;;;;;;10.38;7.28;;;6.30;99.90;;;;;;1944980;73;21260;-76
2021/11/17 03:12:43;;;;;;;12.07;8.43;;;6.30;99.90;;;;;;1930708;73;21146;-75
2021/11/17 03:15:09;;;;;;;14.20;8.90;;;6.20;99.90;;;;;;1924690;72;21053;-75
2021/11/17 03:17:35;;;;;;;12.65;8.90;;;6.20;99.90;;;;;;1921451;72;21129;-76
2021/11/17 03:20:01;;;;;;;13.40;8.93;;;6.20;99.90;;;;;;1935732;73;21062;-76
2021/11/17 03:22:27;;;;;;;12.60;8.90;;;6.20;99.90;;;;;;1946161;72;21609;-74
2021/11/17 03:24:53;;;;;;;12.45;8.30;;;6.20;99.90;;;;;;1940325;73;21488;-74
2021/11/17 03:27:19;;;;;;;11.53;8.58;;;6.10;99.90;;;;;;1920906;73;21110;-74
2021/11/17 03:29:46;;;;;;;16.02;9.08;;;6.20;99.90;;;;;;1946236;72;21470;-74
2021/11/17 03:32:12;;;;;;;14.58;8.78;;;6.20;99.90;;;;;;1921785;73;21200;-75
2021/11/17 03:34:38;;;;;;;15.72;9.13;;;6.20;99.90;;;;;;1925402;73;21264;-74
2021/11/17 03:37:04;;;;;;;22.87;9.70;;;6.20;99.90;;;;;;1941729;72;21151;-74
2021/11/17 03:39:30;;;;;;;12.50;9.08;;;6.20;99.90;;;;;;1950081;73;21041;-74
2021/11/17 03:41:56;;;;;;;12.45;8.60;;;6.20;99.90;;;;;;1928793;73;21067;-74
2021/11/17 03:44:22;;;;;;;16.45;8.25;;;6.30;99.90;;;;;;1933591;71;21068;-75
2021/11/17 03:46:48;;;;;;;15.68;8.80;;;6.30;99.90;;;;;;1944165;72;21068;-78
2021/11/17 03:49:16;;;;;;;12.13;8.38;;;6.30;99.90;;;;;;1930772;71;21065;-74
2021/11/17 03:51:42;;;;;;;11.00;8.00;;;6.40;99.90;;;;;;1935270;72;21080;-77
2021/11/17 03:54:08;;;;;;;10.13;8.25;;;6.40;99.90;;;;;;1928400;71;21068;-77
2021/11/17 03:56:34;;;;;;;22.15;9.15;;;6.30;99.90;;;;;;1939789;73;21138;-77
2021/11/17 03:59:01;;;;;;;11.08;7.83;;;6.30;99.90;;;;;;1931270;72;21067;-74
2021/11/17 04:01:29;;;;;;;13.30;8.65;;;6.30;99.90;;;;;;1907294;73;22547;-74
2021/11/17 04:03:56;;;;;;;11.90;8.80;;;6.20;99.90;;;;;;1941427;71;21413;-74
2021/11/17 04:06:22;;;;;;;14.00;8.15;;;6.20;99.90;;;;;;1939674;71;21107;-74
2021/11/17 04:08:48;;;;;;;12.55;8.85;;;6.20;99.90;;;;;;1944867;73;21084;-74
2021/11/17 04:11:14;;;;;;;11.85;9.10;;;6.30;99.90;;;;;;1917664;72;21077;-77
2021/11/17 04:13:41;;;;;;;11.43;8.65;;;6.30;99.90;;;;;;1903872;73;21546;-76
2021/11/17 04:16:07;;;;;;;13.13;8.60;;;6.30;99.90;;;;;;1934641;73;21474;-75
2021/11/17 04:18:33;;;;;;;11.63;7.72;;;6.30;99.90;;;;;;1944866;71;21072;-75
2021/11/17 04:20:59;;;;;;;12.37;8.23;;;6.20;99.90;;;;;;1938614;73;21212;-75
2021/11/17 04:23:25;;;;;;;12.88;8.53;;;6.30;99.90;;;;;;1933483;71;21208;-76
2021/11/17 04:25:51;;;;;;;13.22;7.78;;;6.30;99.90;;;;;;1937568;72;21175;-77
2021/11/17 04:28:17;;;;;;;12.00;7.97;;;6.30;99.90;;;;;;1929536;72;21136;-75
2021/11/17 04:30:44;;;;;;;10.65;7.80;;;6.40;99.90;;;;;;1931116;73;21149;-75
2021/11/17 04:33:10;;;;;;;12.47;8.18;;;6.40;99.90;;;;;;1932707;73;21066;-75
2021/11/17 04:35:36;;;;;;;14.60;8.90;;;6.30;99.90;;;;;;1922823;72;21439;-74
2021/11/17 04:38:02;;;;;;;14.55;8.23;;;6.30;99.90;;;;;;1924719;73;21185;-75
2021/11/17 04:40:28;;;;;;;10.55;7.50;;;6.30;99.90;;;;;;1929765;73;21036;-75
2021/11/17 04:42:54;;;;;;;14.40;7.42;;;6.30;99.90;;;;;;1949814;71;21072;-75
2021/11/17 04:45:20;;;;;;;9.00;6.92;;;6.30;99.90;;;;;;1920200;73;21085;-74
2021/11/17 04:47:46;;;;;;;13.43;6.85;;;6.30;99.90;;;;;;1923354;73;21142;-75
2021/11/17 04:50:12;;;;;;;12.10;7.22;;;6.30;99.90;;;;;;1935930;72;21076;-74
2021/11/17 04:52:39;;;;;;;8.70;7.05;;;6.30;99.90;;;;;;1922370;72;21052;-77
2021/11/17 04:55:06;;;;;;;11.57;6.47;;;6.30;99.90;;;;;;1904690;73;21460;-74
2021/11/17 04:57:34;;;;;;;10.35;7.03;;;6.30;99.90;;;;;;1932589;72;21104;-76
2021/11/17 05:00:00;;;;;;;9.38;6.70;;;6.40;99.90;;;;;;1926108;73;21145;-74
2021/11/17 05:02:26;;;;;;;11.48;6.50;;;6.30;99.90;;;;;;1944581;72;21209;-74
2021/11/17 05:04:52;;;;;;;9.35;6.95;;;6.30;99.90;;;;;;1928068;73;21536;-74
2021/11/17 05:07:20;;;;;;;8.13;6.35;;;6.20;99.90;;;;;;1945569;71;21161;-74
2021/11/17 05:09:46;;;;;;;8.85;6.83;;;6.20;99.90;;;;;;1951745;71;21056;-73
2021/11/17 05:12:15;;;;;;;10.30;7.05;;;6.30;99.90;;;;;;1929229;72;21130;-75
2021/11/17 05:14:40;;;;;;;8.28;6.50;;;6.20;99.90;;;;;;1931269;72;21577;-76
2021/11/17 05:17:06;;;;;;;10.23;6.85;;;6.20;99.90;;;;;;1949506;72;21121;-74
2021/11/17 05:19:33;;;;;;;12.65;7.33;;;6.20;99.90;;;;;;1944548;71;21067;-75
2021/11/17 05:21:59;;;;;;;8.80;6.70;;;6.20;99.90;;;;;;1927257;72;21076;-75
2021/11/17 05:24:25;;;;;;;13.65;7.55;;;6.20;99.90;;;;;;1930382;73;21122;-75
2021/11/17 05:26:51;;;;;;;10.63;7.58;;;6.10;99.90;;;;;;1944349;73;21065;-75
2021/11/17 05:29:19;;;;;;;13.53;8.05;;;6.10;99.90;;;;;;1947071;73;21125;-76
2021/11/17 05:31:45;;;;;;;14.95;7.80;;;6.10;99.90;;;;;;1940831;71;21071;-75
2021/11/17 05:34:11;;;;;;;14.30;7.83;;;6.10;99.90;;;;;;1915947;73;21068;-75
2021/11/17 05:36:37;;;;;;;8.90;7.20;;;6.10;99.90;;;;;;1931570;73;21516;-76
2021/11/17 05:39:03;;;;;;;15.75;7.45;;;6.20;99.90;;;;;;1940671;71;21166;-75
2021/11/17 05:41:29;;;;;;;10.53;7.53;;;6.20;99.90;;;;;;1936142;73;21053;-75
2021/11/17 05:43:55;;;;;;;10.20;8.08;;;6.20;99.90;;;;;;1939776;73;21080;-75
2021/11/17 05:46:21;;;;;;;11.93;8.05;;;6.20;99.90;;;;;;1927152;72;21142;-75
2021/11/17 05:48:48;;;;;;;13.03;7.90;;;6.10;99.90;;;;;;1941394;73;21067;-75
2021/11/17 05:51:14;;;;;;;10.85;7.15;;;6.00;99.90;;;;;;1946704;71;21112;-75
2021/11/17 05:53:42;;;;;;;13.28;7.85;;;6.10;99.90;;;;;;1937756;72;21114;-76
2021/11/17 05:56:08;;;;;;;9.93;6.83;;;6.10;99.90;;;;;;1942108;72;21117;-75
2021/11/17 05:58:34;;;;;;;10.58;7.25;;;6.20;99.90;;;;;;1935378;73;21076;-75
2021/11/17 06:01:02;;;;;;;12.33;7.35;;;6.20;99.90;;;;;;1936162;72;21134;-75
2021/11/17 06:03:30;;;;;;;12.45;6.83;;;6.30;99.90;;;;;;1912709;72;21494;-76
2021/11/17 06:05:56;;;;;;;7.95;6.53;;;6.20;99.90;;;;;;1929806;72;21066;-75
2021/11/17 06:08:22;;;;;;;8.50;7.00;;;6.10;99.90;;;;;;1924209;73;21086;-76
2021/11/17 06:10:48;;;;;;;16.65;7.17;;;6.20;99.90;;;;;;1921768;71;21068;-75
2021/11/17 06:13:14;;;;;;;9.30;6.15;;;6.10;99.90;;;;;;1948788;72;21070;-75
2021/11/17 06:15:40;;;;;;;8.45;5.95;;;6.10;99.90;;;;;;1925477;72;21107;-75
2021/11/17 06:18:06;;;;;;;11.40;6.67;;;6.20;99.90;;;;;;1921678;72;21219;-76
2021/11/17 06:20:32;;;;;;;7.33;5.40;;;6.10;99.90;;;;;;1920519;73;21037;-75
2021/11/17 06:22:59;;;;;;;9.78;6.85;;;6.20;99.90;;;;;;1920489;73;21154;-77
2021/11/17 06:25:25;;;;;;;7.70;6.58;;;6.30;99.90;;;;;;1914536;73;21076;-76
2021/11/17 06:27:52;;;;;;;9.98;6.58;;;6.40;99.90;;;;;;1929325;72;21084;-76
2021/11/17 06:30:18;;;;;;;9.90;6.85;;;6.40;99.90;;;;;;1929776;73;21141;-76
2021/11/17 06:32:45;;;;;;;11.45;6.05;;;6.30;99.90;;;;;;1932267;72;21142;-75
2021/11/17 06:35:13;;;;;;;8.08;5.78;;;6.20;99.90;;;;;;1935545;73;21122;-76
2021/11/17 06:37:38;;;;;;;8.95;5.92;;;6.20;99.90;;;;;;1923487;73;21146;-75
2021/11/17 06:40:05;;;;;;;7.25;5.25;;;6.30;99.90;;;;;;1945611;72;21064;-75
2021/11/17 06:42:31;;;;;;;5.72;4.70;;;6.30;99.90;;;;;;1938804;73;21067;-74
2021/11/17 06:44:58;;;;;;;5.92;4.45;;;6.20;99.90;;;;;;1937383;73;21072;-72
2021/11/17 06:47:24;;;;;;;6.03;4.62;;;6.20;99.90;;;;;;1934313;71;21634;-75
2021/11/17 06:49:53;;;;;;;6.85;4.90;;;6.30;99.90;;;;;;1926578;73;21516;-74
2021/11/17 06:52:18;;;;;;;8.53;4.62;;;6.20;99.90;;;;;;1925694;73;21101;-76
2021/11/17 06:54:44;;;;;;;8.95;5.00;;;6.20;99.90;;;;;;1937190;72;21215;-77
2021/11/17 06:57:10;;;;;;;6.67;4.53;;;6.20;99.90;;;;;;1932881;72;21631;-75
2021/11/17 06:59:36;;;;;;;14.35;8.20;;;6.20;99.90;;;;;;1941258;72;21542;-76
2021/11/17 07:02:05;;;;;;;8.13;5.25;;;6.10;99.90;;;;;;1919821;72;21493;-76
2021/11/17 07:04:31;;;;;;;6.12;4.62;;;6.20;99.90;;;;;;1927090;72;21057;-75
2021/11/17 07:06:57;;;;;;;12.35;5.65;;;6.20;99.90;;;;;;1926242;73;21072;-77
2021/11/17 07:09:23;;;;;;;9.60;5.28;;;6.20;99.90;;;;;;1933403;72;21162;-76
2021/11/17 07:11:49;;;;;;;11.18;6.03;;;6.20;99.90;;;;;;1939898;73;21068;-77
2021/11/17 07:14:16;;;;;;;7.28;5.08;;;6.20;99.90;;;;;;1948393;71;21427;-79
2021/11/17 07:16:43;;;;;;;9.55;5.40;;;6.20;99.90;;;;;;1936041;72;21053;-78
2021/11/17 07:19:09;;;;;;;7.10;5.47;;;6.20;99.90;;;;;;1938996;72;21065;-76
2021/11/17 07:21:35;;;;;;;10.82;5.80;;;6.20;99.90;;;;;;1929510;72;21515;-78
2021/11/17 07:24:02;;;;;;;11.97;6.83;;;6.20;99.90;;;;;;1926914;73;21558;-75
2021/11/17 07:26:28;;;;;;;13.15;5.60;;;6.20;99.90;;;;;;1932025;73;21088;-75
2021/11/17 07:28:55;;;;;;;9.28;5.67;;;6.10;99.90;;;;;;1917965;73;21076;-75
2021/11/17 07:31:21;;;;;;;9.03;5.78;;;6.20;99.90;;;;;;1933286;72;21036;-75
2021/11/17 07:33:47;;;;;;;8.68;5.45;;;6.10;99.90;;;;;;1943851;72;21064;-75
2021/11/17 07:36:13;;;;;;;19.60;5.47;;;6.10;99.90;;;;;;1946736;71;21129;-75
2021/11/17 07:38:39;;;;;;;12.05;5.87;;;6.10;99.90;;;;;;1930042;73;21078;-76
2021/11/17 07:41:05;;;;;;;8.53;5.60;;;6.20;99.90;;;;;;1931893;73;21495;-75
2021/11/17 07:43:31;;;;;;;10.55;6.17;;;6.10;99.90;;;;;;1942239;73;21466;-74
2021/11/17 07:45:57;;;;;;;10.13;5.87;;;6.10;99.90;;;;;;1939544;73;21483;-74
2021/11/17 07:48:25;;;;;;;8.20;5.83;;;6.10;99.90;;;;;;1948904;72;21674;-74
2021/11/17 07:50:51;;;;;;;12.00;6.40;;;6.10;99.90;;;;;;1942234;73;21086;-75
2021/11/17 07:53:17;;;;;;;11.35;5.58;;;6.00;99.90;;;;;;1934903;71;21133;-74
2021/11/17 07:55:44;;;;;;;10.93;6.08;;;6.10;99.90;;;;;;1942108;72;21023;-74
2021/11/17 07:58:10;;;;;;;10.45;5.70;;;6.10;99.90;;;;;;1930157;73;21455;-75
2021/11/17 08:00:36;;;;;;;7.97;6.10;;;6.10;99.90;;;;;;1918366;73;21496;-76
2021/11/17 08:03:03;;;;;;;8.93;5.70;;;6.20;99.90;;;;;;1921962;73;21468;-75
2021/11/17 08:05:29;;;;;;;12.10;5.95;;;6.30;99.90;;;;;;1937526;72;21137;-74
2021/11/17 08:07:55;;;;;;;11.43;5.70;;;6.10;99.90;;;;;;1939194;71;21070;-74
2021/11/17 08:10:24;;;;;;;8.33;6.00;;;6.20;99.90;;;;;;1927730;73;21066;-75
2021/11/17 08:12:49;;;;;;;17.98;5.67;;;6.20;99.90;;;;;;1935411;73;21105;-74
2021/11/17 08:15:15;;;;;;;9.23;5.30;;;6.20;99.90;;;;;;1950039;72;21146;-75
2021/11/17 08:17:42;;;;;;;9.00;6.12;;;6.20;99.90;;;;;;1945137;71;21126;-74
2021/11/17 08:20:11;;;;;;;9.88;6.10;;;6.30;99.90;;;;;;1952673;71;21063;-74
2021/11/17 08:22:36;;;;;;;8.48;5.80;;;6.30;99.90;;;;;;1923673;72;21097;-76
2021/11/17 08:25:02;;;;;;;15.38;5.65;;;6.30;99.90;;;;;;1933670;72;21055;-75
2021/11/17 08:27:28;;;;;;;11.78;5.80;;;6.40;99.90;;;;;;1925724;72;21084;-75
2021/11/17 08:29:56;;;;;;;17.25;6.58;;;6.40;99.90;;;;;;1924159;71;21577;-76
2021/11/17 08:32:22;;;;;;;8.03;5.65;;;6.50;99.90;;;;;;1937797;73;21182;-75
2021/11/17 08:34:48;;;;;;;9.08;6.37;;;6.50;99.90;;;;;;1933235;72;21080;-75
2021/11/17 08:37:14;;;;;;;11.53;5.95;;;6.50;99.90;;;;;;1930648;72;21146;-75
2021/11/17 08:39:41;;;;;;;7.45;4.62;;;6.50;99.90;;;;;;1945934;72;21068;-76
2021/11/17 08:42:07;;;;;;;5.70;4.15;;;6.40;99.90;;;;;;1946719;71;21133;-75
2021/11/17 08:44:33;;;;;;;8.93;4.95;;;6.40;99.90;;;;;;1956742;71;21066;-75
2021/11/17 08:46:59;;;;;;;6.35;4.28;;;6.40;99.90;;;;;;1933314;73;21073;-75
2021/11/17 08:49:26;;;;;;;6.45;5.10;;;6.40;99.90;;;;;;1931071;72;21081;-75
2021/11/17 08:51:52;;;;;;;7.45;3.90;;;6.50;99.90;;;;;;1921999;73;21202;-76
2021/11/17 08:54:18;;;;;;;6.40;4.03;;;6.50;99.90;;;;;;1925856;73;21457;-75
2021/11/17 08:56:44;;;;;;;6.53;4.50;;;6.40;99.90;;;;;;1923144;73;21551;-75
2021/11/17 08:59:10;;;;;;;4.83;3.70;;;6.40;99.90;;;;;;1934812;72;21508;-76
2021/11/17 09:01:36;;;;;;;10.28;4.53;;;6.30;99.90;;;;;;1932874;73;21260;-75
2021/11/17 09:04:06;;;;;;;5.62;3.85;;;6.40;99.90;;;;;;1945373;72;21129;-76
2021/11/17 09:06:30;;;;;;;7.97;4.03;;;6.30;99.90;;;;;;1927285;73;21183;-73
2021/11/17 09:09:00;;;;;;;5.22;3.87;;;6.40;99.90;;;;;;1934359;71;21132;-76
2021/11/17 09:11:26;;;;;;;5.05;3.72;;;6.50;99.90;;;;;;1923918;72;21190;-76
2021/11/17 09:13:52;;;;;;;9.63;3.87;;;6.60;99.90;;;;;;1926223;71;21051;-76
2021/11/17 09:16:18;;;;;;;5.03;4.08;;;6.70;99.90;;;;;;1921423;73;21217;-76
2021/11/17 09:18:45;;;;;;;5.97;3.75;;;6.70;99.90;;;;;;1937877;72;21068;-76
2021/11/17 09:21:11;;;;;;;5.33;4.00;;;6.80;99.90;;;;;;1949391;73;21068;-77
2021/11/17 09:23:37;;;;;;;6.58;3.37;;;6.90;99.90;;;;;;1929963;72;21026;-78
2021/11/17 09:26:03;;;;;;;4.65;3.10;;;6.80;99.90;;;;;;1941676;72;21098;-77
2021/11/17 09:28:29;;;;;;;2.95;2.40;;;6.80;99.90;;;;;;1945314;73;21073;-76
2021/11/17 09:30:55;;;;;;;3.62;2.50;;;6.70;99.90;;;;;;1939073;72;21063;-76
2021/11/17 09:33:22;;;;;;;3.35;2.10;;;6.60;99.90;;;;;;1945901;73;21092;-76
2021/11/17 09:35:48;;;;;;;3.22;2.40;;;6.60;99.90;;;;;;1930476;73;21554;-76
2021/11/17 09:38:14;;;;;;;3.50;2.08;;;6.40;99.90;;;;;;1931631;73;21499;-76
2021/11/17 09:40:40;;;;;;;3.70;2.22;;;6.30;99.90;;;;;;1930986;73;21470;-76
2021/11/17 09:43:06;;;;;;;3.72;2.12;;;6.40;99.90;;;;;;1935567;72;21558;-75
2021/11/17 09:45:32;;;;;;;2.65;2.08;;;6.30;99.90;;;;;;1936994;72;21041;-75
2021/11/17 09:48:00;;;;;;;3.85;2.12;;;6.30;99.90;;;;;;1922515;73;21074;-76
2021/11/17 09:50:28;;;;;;;3.47;2.30;;;6.30;99.90;;;;;;1930998;73;21625;-76
2021/11/17 09:52:54;;;;;;;3.30;2.27;;;6.20;99.90;;;;;;1919370;73;21067;-72
2021/11/17 09:55:20;;;;;;;3.98;1.92;;;6.10;99.90;;;;;;1940454;72;21074;-76
2021/11/17 09:57:46;;;;;;;4.00;2.02;;;6.20;99.90;;;;;;1943727;71;21149;-76
2021/11/17 10:00:12;;;;;;;2.75;2.33;;;6.20;99.90;;;;;;1935599;73;21189;-76
2021/11/17 10:05:23;;;;;;;2.47;2.25;;;6.30;99.90;;;;;;1922194;71;21073;-74
2021/11/17 10:13:19;;;;;;;5.12;1.87;;;6.30;99.90;;;;;;1938200;72;21043;-76
2021/11/17 10:15:45;;;;;;;3.17;2.02;;;6.20;99.90;;;;;;1936361;72;21072;-76
2021/11/17 10:18:11;;;;;;;6.30;2.70;;;6.30;99.90;;;;;;1946487;71;21048;-75
2021/11/17 10:20:38;;;;;;;3.80;1.80;;;6.30;99.90;;;;;;1942245;73;21068;-74
2021/11/17 10:23:04;;;;;;;2.35;2.12;;;6.30;99.90;;;;;;1920349;73;21139;-76
2021/11/17 10:25:30;;;;;;;2.12;1.92;;;6.40;99.90;;;;;;1948915;72;21069;-75
2021/11/17 10:27:56;;;;;;;5.22;2.20;;;6.50;99.90;;;;;;1936638;72;21150;-76
2021/11/17 10:30:24;;;;;;;2.92;1.80;;;6.60;99.90;;;;;;1946539;71;21099;-77
2021/11/17 10:32:50;;;;;;;2.77;2.40;;;6.70;99.90;;;;;;1929596;72;21214;-75
2021/11/17 10:35:17;;;;;;;2.50;2.12;;;6.70;99.90;;;;;;1952270;71;21108;-77
2021/11/17 10:37:43;;;;;;;3.10;2.02;;;6.80;99.90;;;;;;1948973;72;21181;-76
2021/11/17 10:40:11;;;;;;;3.17;1.60;;;6.90;99.90;;;;;;1940685;71;21059;-76
2021/11/17 10:42:37;;;;;;;2.00;1.45;;;6.80;99.90;;;;;;1931368;72;21199;-75
2021/11/17 10:45:03;;;;;;;2.75;1.67;;;6.80;99.90;;;;;;1939371;72;21138;-75
2021/11/17 10:47:29;;;;;;;5.83;1.57;;;6.80;99.90;;;;;;1935098;72;21121;-77
2021/11/17 10:49:55;;;;;;;2.30;1.80;;;6.70;99.90;;;;;;1943591;72;21243;-75
2021/11/17 10:52:21;;;;;;;1.87;1.52;;;6.60;99.90;;;;;;1936269;73;21130;-76
2021/11/17 10:54:47;;;;;;;4.33;1.92;;;6.70;99.90;;;;;;1948634;72;21075;-75
2021/11/17 10:57:13;;;;;;;1.62;1.40;;;6.80;99.90;;;;;;1928689;73;21068;-75
2021/11/17 10:59:39;;;;;;;1.45;1.35;;;6.80;99.90;;;;;;1945369;73;21068;-75
2021/11/17 11:02:06;;;;;;;1.30;1.20;;;6.80;99.90;;;;;;1935797;72;21578;-74
2021/11/17 11:04:34;;;;;;;4.10;1.37;;;6.80;99.90;;;;;;1923894;73;21147;-74
2021/11/17 11:07:00;;;;;;;2.58;1.40;;;6.80;99.90;;;;;;1919532;73;21524;-75
2021/11/17 11:09:26;;;;;;;2.22;1.50;;;6.90;99.90;;;;;;1934410;71;21081;-74
2021/11/17 11:11:52;;;;;;;1.47;1.37;;;7.00;99.90;;;;;;1955251;72;21133;-74
2021/11/17 11:14:18;;;;;;;1.35;1.20;;;7.20;99.90;;;;;;1939790;71;21072;-75
2021/11/17 11:16:44;;;;;;;1.40;1.30;;;7.10;99.90;;;;;;1939002;72;21128;-76
2021/11/17 11:19:11;;;;;;;1.50;1.40;;;7.00;99.90;;;;;;1940106;72;21133;-75
2021/11/17 11:21:37;;;;;;;3.47;1.17;;;6.90;99.90;;;;;;1925517;73;21053;-75
2021/11/17 11:24:03;;;;;;;2.02;1.42;;;6.90;99.90;;;;;;1928285;73;21120;-73
2021/11/17 11:26:29;;;;;;;1.67;1.10;;;6.90;99.90;;;;;;1955983;71;21117;-73
2021/11/17 11:28:55;;;;;;;1.40;1.30;;;6.90;99.90;;;;;;1936376;72;21202;-73
2021/11/17 11:31:21;;;;;;;0.78;0.70;;;7.00;99.90;;;;;;1929417;72;21246;-73
2021/11/17 11:33:50;;;;;;;1.50;1.10;;;6.90;99.90;;;;;;1943758;72;21080;-74
2021/11/17 11:36:16;;;;;;;1.42;1.02;;;6.80;99.90;;;;;;1929314;73;21162;-75
2021/11/17 11:38:42;;;;;;;1.30;1.20;;;6.90;99.90;;;;;;1945559;72;21504;-74
2021/11/17 11:41:08;;;;;;;2.65;1.45;;;7.00;99.90;;;;;;1946393;73;21461;-75
2021/11/17 11:43:34;;;;;;;1.47;1.30;;;7.00;99.90;;;;;;1921589;73;22942;-74
2021/11/17 11:46:00;;;;;;;1.45;1.02;;;7.00;99.90;;;;;;1948573;71;21462;-74
2021/11/17 11:48:27;;;;;;;1.95;1.35;;;7.00;99.90;;;;;;1933706;71;21094;-74
2021/11/17 11:50:53;;;;;;;3.02;1.22;;;7.00;99.90;;;;;;1944320;71;21132;-75
2021/11/17 11:53:19;;;;;;;2.02;1.30;;;7.00;99.90;;;;;;1928655;71;21133;-75
2021/11/17 11:55:45;;;;;;;1.22;1.12;;;6.90;99.90;;;;;;1923701;72;21129;-76
2021/11/17 11:58:13;;;;;;;1.60;1.50;;;6.90;99.90;;;;;;1941178;71;21115;-75
2021/11/17 12:00:39;;;;;;;1.35;1.25;;;7.00;99.90;;;;;;1925717;72;21086;-76
2021/11/17 12:03:05;;;;;;;1.47;1.20;;;7.00;99.90;;;;;;1934411;72;21087;-74
2021/11/17 12:05:31;;;;;;;1.47;0.90;;;7.10;99.90;;;;;;1929307;72;21076;-74
2021/11/17 12:07:57;;;;;;;3.02;1.45;;;7.10;99.90;;;;;;1948253;73;21061;-75
2021/11/17 12:10:25;;;;;;;2.08;1.40;;;7.10;99.90;;;;;;1937565;71;21067;-75
2021/11/17 12:12:51;;;;;;;1.37;0.90;;;7.10;99.90;;;;;;1929644;73;21150;-75
2021/11/17 12:15:17;;;;;;;1.42;1.32;;;7.20;99.90;;;;;;1935333;73;21154;-79
2021/11/17 12:17:43;;;;;;;2.92;0.90;;;7.10;99.90;;;;;;1926388;73;21147;-75
2021/11/17 12:20:09;;;;;;;1.30;1.20;;;7.20;99.90;;;;;;1932653;73;21071;-75
2021/11/17 12:22:35;;;;;;;1.47;1.37;;;7.20;99.90;;;;;;1948859;72;21202;-76
2021/11/17 12:25:01;;;;;;;1.87;1.35;;;7.20;99.90;;;;;;1950603;71;21539;-76
2021/11/17 12:27:28;;;;;;;1.22;1.10;;;7.20;99.90;;;;;;1947861;71;21532;-76
2021/11/17 12:29:54;;;;;;;0.82;0.82;;;7.10;99.90;;;;;;1940258;71;21474;-76
2021/11/17 12:32:20;;;;;;;1.20;1.05;;;7.10;99.90;;;;;;1922182;73;21142;-76
2021/11/17 12:34:46;;;;;;;1.27;1.15;;;7.10;99.90;;;;;;1933326;72;21076;-75
2021/11/17 12:37:12;;;;;;;1.22;1.00;;;7.10;99.90;;;;;;1947374;72;21164;-76
2021/11/17 12:39:40;;;;;;;2.05;1.22;;;7.10;99.90;;;;;;1955058;71;21121;-75
2021/11/17 12:42:06;;;;;;;1.17;1.07;;;7.10;99.90;;;;;;1947726;72;21167;-75
2021/11/17 12:44:32;;;;;;;1.30;1.20;;;7.20;99.90;;;;;;1939676;72;21140;-77
2021/11/17 12:46:59;;;;;;;1.30;1.20;;;7.20;99.90;;;;;;1930671;72;21082;-76
2021/11/17 12:49:25;;;;;;;1.20;1.10;;;7.20;99.90;;;;;;1945393;71;21129;-74
2021/11/17 12:51:52;;;;;;;0.93;0.93;;;7.20;99.90;;;;;;1929007;73;21487;-75
2021/11/17 12:54:18;;;;;;;5.00;1.22;;;7.20;99.90;;;;;;1940444;73;21083;-74
2021/11/17 12:56:45;;;;;;;1.17;1.07;;;7.10;99.90;;;;;;1925918;73;21053;-74
2021/11/17 12:59:12;;;;;;;1.45;1.10;;;7.00;99.90;;;;;;1929927;73;21040;-76
2021/11/17 13:01:38;;;;;;;1.45;1.05;;;7.00;99.90;;;;;;1931605;73;21140;-75
2021/11/17 13:04:05;;;;;;;0.72;0.72;;;6.90;99.90;;;;;;1935610;73;21070;-75
2021/11/17 13:06:31;;;;;;;0.90;0.90;;;7.00;99.90;;;;;;1921906;73;21585;-76
2021/11/17 13:08:59;;;;;;;3.37;1.12;;;6.90;99.90;;;;;;1928576;72;21132;-77
2021/11/17 13:11:25;;;;;;;1.40;1.30;;;7.00;99.90;;;;;;1943876;72;21535;-76
2021/11/17 13:13:55;;;;;;;2.42;1.42;;;6.90;99.90;;;;;;1925386;73;21063;-75
2021/11/17 13:16:19;;;;;;;1.92;1.42;;;6.90;99.90;;;;;;1918652;73;21083;-77
2021/11/17 13:18:45;;;;;;;1.62;1.15;;;6.90;99.90;;;;;;1930873;73;21108;-75
2021/11/17 13:21:11;;;;;;;2.25;1.35;;;6.90;99.90;;;;;;1937787;73;21039;-75
2021/11/17 13:23:37;;;;;;;5.33;1.60;;;6.90;99.90;;;;;;1921967;73;21124;-76
2021/11/17 13:26:04;;;;;;;1.00;1.00;;;6.80;99.90;;;;;;1930641;73;21149;-76
2021/11/17 13:28:30;;;;;;;1.55;1.15;;;6.90;99.90;;;;;;1915787;73;21161;-75
2021/11/17 13:30:56;;;;;;;1.45;1.17;;;6.90;99.90;;;;;;1938895;73;21075;-77
2021/11/17 13:33:22;;;;;;;2.00;0.93;;;7.00;99.90;;;;;;1947333;72;21536;-77
2021/11/17 13:35:48;;;;;;;1.90;1.12;;;7.00;99.90;;;;;;1947204;73;21483;-77
2021/11/17 13:38:14;;;;;;;1.15;1.05;;;7.00;99.90;;;;;;1928723;73;21471;-77
2021/11/17 13:40:40;;;;;;;2.80;1.42;;;7.00;99.90;;;;;;1930486;73;21231;-75
2021/11/17 13:43:08;;;;;;;2.40;1.70;;;7.00;99.90;;;;;;1946849;72;21072;-77
2021/11/17 13:45:34;;;;;;;1.25;1.15;;;7.00;99.90;;;;;;1900807;73;21078;-77
2021/11/17 13:48:00;;;;;;;1.82;1.20;;;7.10;99.90;;;;;;1938845;72;21067;-78
2021/11/17 13:50:28;;;;;;;1.80;1.55;;;7.10;99.90;;;;;;1942835;72;21140;-79
2021/11/17 13:52:55;;;;;;;2.42;1.87;;;7.10;99.90;;;;;;1936923;72;21262;-78
2021/11/17 13:55:21;;;;;;;1.45;1.10;;;7.10;99.90;;;;;;1920118;72;21166;-80
2021/11/17 13:57:47;;;;;;;1.92;1.55;;;7.00;99.90;;;;;;1924023;73;21111;-78
2021/11/17 14:00:13;;;;;;;1.62;1.52;;;7.00;99.90;;;;;;1918943;73;21154;-78
2021/11/17 14:02:40;;;;;;;1.82;1.40;;;7.00;99.90;;;;;;1932904;73;21177;-78
2021/11/17 14:05:06;;;;;;;1.80;1.50;;;7.00;99.90;;;;;;1919528;73;21067;-78
2021/11/17 14:07:32;;;;;;;2.75;2.30;;;6.90;99.90;;;;;;1920439;73;21180;-79
2021/11/17 14:09:58;;;;;;;2.62;1.72;;;6.90;99.90;;;;;;1931864;72;21071;-76
2021/11/17 14:12:24;;;;;;;2.05;1.80;;;6.90;99.90;;;;;;1946958;73;21170;-79
2021/11/17 14:14:51;;;;;;;2.05;1.50;;;7.00;99.90;;;;;;1942427;72;21138;-79
2021/11/17 14:17:17;;;;;;;1.45;1.35;;;7.00;99.90;;;;;;1932529;72;21500;-78
2021/11/17 14:19:43;;;;;;;4.10;2.98;;;6.90;99.90;;;;;;1922871;73;21476;-80
2021/11/17 14:22:09;;;;;;;34.75;23.65;;;7.00;99.90;;;;;;1931085;73;21438;-79
2021/11/17 14:24:35;;;;;;;6.92;2.50;;;7.00;99.90;;;;;;1920098;73;21092;-79
2021/11/17 14:27:01;;;;;;;2.95;1.87;;;7.00;99.90;;;;;;1932028;73;21063;-79
2021/11/17 14:29:29;;;;;;;1.77;1.67;;;6.90;99.90;;;;;;1937933;72;21158;-79
2021/11/17 14:31:55;;;;;;;2.08;1.87;;;6.90;99.90;;;;;;1945093;73;21494;-79
2021/11/17 14:34:21;;;;;;;3.87;2.15;;;6.90;99.90;;;;;;1946686;72;21528;-80
2021/11/17 14:36:49;;;;;;;3.58;1.98;;;6.80;99.90;;;;;;1922993;73;21430;-79
2021/11/17 14:39:15;;;;;;;3.62;1.98;;;6.80;99.90;;;;;;1941962;73;21044;-81
2021/11/17 14:41:42;;;;;;;1.95;1.82;;;6.80;99.90;;;;;;1923807;73;21136;-78
2021/11/17 14:44:08;;;;;;;1.65;1.40;;;6.90;99.90;;;;;;1933290;72;21153;-76
2021/11/17 14:46:34;;;;;;;1.40;1.30;;;7.00;99.90;;;;;;1938734;72;21080;-77
2021/11/17 14:49:00;;;;;;;2.30;1.65;;;7.00;99.90;;;;;;1933743;72;21140;-80
2021/11/17 14:51:26;;;;;;;6.42;1.80;;;7.00;99.90;;;;;;1916756;73;21123;-75
2021/11/17 14:53:52;;;;;;;3.67;1.92;;;6.90;99.90;;;;;;1931657;73;21037;-75
2021/11/17 14:56:18;;;;;;;2.17;1.95;;;7.00;99.90;;;;;;1920477;72;21157;-74
2021/11/17 14:58:44;;;;;;;2.92;1.98;;;6.90;99.90;;;;;;1936082;72;21067;-73
2021/11/17 15:01:11;;;;;;;1.92;1.75;;;6.90;99.90;;;;;;1937254;72;21150;-72
2021/11/17 15:03:38;;;;;;;2.65;1.80;;;7.00;99.90;;;;;;1912310;73;21158;-74
2021/11/17 15:06:04;;;;;;;1.70;1.37;;;6.90;99.90;;;;;;1932331;72;21193;-73
2021/11/17 15:08:30;;;;;;;2.15;1.90;;;7.00;99.90;;;;;;1930326;73;21133;-72
2021/11/17 15:10:56;;;;;;;3.25;2.15;;;7.00;99.90;;;;;;1946418;72;21028;-74
2021/11/17 15:13:23;;;;;;;2.47;1.98;;;6.90;99.90;;;;;;1946895;72;21079;-73
2021/11/17 15:15:49;;;;;;;1.87;1.70;;;6.90;99.90;;;;;;1918881;73;21080;-73
2021/11/17 15:18:21;;;;;;;2.92;1.90;;;6.90;99.90;;;;;;1946942;72;21153;-73
2021/11/17 15:20:46;;;;;;;2.87;1.75;;;6.90;99.90;;;;;;1924903;73;21620;-74